Drummond Island, Michigan
Current Conditions -  °F | °C
As of 1:15 PM on Saturday 25 Oct 2014 (Local Time) from KDRM Reporting Station
Overcast Overcast  
Wind Chill: 56°   Ceiling: 5500
Heat Index: 56°   Visibility: 10mi
Dew Point: 40°   Wind: 9mph
Humidity: 54%   Direction: 310°NW
Pressure: 29.61"   Gusts: 18mph
Location:  46°N, 83.7°W
Report Text: KDRM 251715Z AUTO 31008G16KT 270V340 10SM OVC055 14/04 A2961 RMK AO2 T01350043
Loading
Personal Weather Stations






























Interactive Weather Map
Tropical Storm Tracking
New forecast layout! Learn more

10-Day Weather Forecast

Advertisements
Track Severe Weather on mobile